»·PEaware :: DCM424 KBTM-KSLC

DCM424 :: KBTM-KSLC

FLIGHT INFORMATION

Flight Status: Arrived
Operator: DotCom
More flights by this operator :: More flights under this callsign
Pilot: Ben H. (9170)
Aircraft: CESSNA 550 CITATION 2/S2/BRAVO
(C550)
More flights by this aircraft type
Origin: KBTM Mooney
United States
Destination: KSLC Salt Lake City Intl
United States
More flights between these airports :: More routes between these airports
Route: +CPN V257 DBS NORDK6 34R
File this flight plan on PilotEdge
Remarks:
Altitude:
(Current/Filed)
31,000ft
Speed:
(Current/Filed)
290kts
Departed: 08-Mar-19 05:00 PM
Arrived: 08-Mar-19 06:19 PM
Distance/Time
Traveled:
312nm/1:19
Distance/Time
To Go:
Arrived

Flight Plot

Page will automatically refresh every two minutes.

Flight plan parsing failed; only flown route is shown


Map Options




Map Legend


Flown Route
Filed Route
Departure Airport
Arrival Airport
Navaid (VOR, NDB)
Fix

Horizontal Profiles

Position Reports

Time Latitude Longitude Heading Altitude Ground
Speed
08-Mar-19 16:40 45.956270 -112.503868 217 5531ft 0kts
08-Mar-19 16:41 45.956270 -112.503868 217 5531ft 0kts
08-Mar-19 16:42 45.956270 -112.503868 217 5531ft 0kts
08-Mar-19 16:43 45.956270 -112.503868 217 5531ft 0kts
08-Mar-19 16:44 45.956270 -112.503868 217 5531ft 0kts
08-Mar-19 16:45 45.956270 -112.503868 217 5531ft 0kts
08-Mar-19 16:46 45.956270 -112.503868 217 5531ft 0kts
08-Mar-19 16:47 45.956270 -112.503868 217 5531ft 0kts
08-Mar-19 16:48 45.956267 -112.503872 219 5531ft 0kts
08-Mar-19 16:49 45.957006 -112.503827 128 5529ft 9kts
08-Mar-19 16:50 45.955865 -112.501813 129 5531ft 12kts
08-Mar-19 16:51 45.953651 -112.498427 160 5532ft 6kts
08-Mar-19 16:52 45.949303 -112.496952 167 5540ft 12kts
08-Mar-19 16:53 45.945090 -112.495543 166 5542ft 19kts
08-Mar-19 16:54 45.942977 -112.494657 123 5539ft 0kts
08-Mar-19 16:55 45.942977 -112.494657 123 5539ft 0kts
08-Mar-19 16:56 45.942976 -112.494657 123 5539ft 0kts
08-Mar-19 16:57 45.942976 -112.494657 123 5539ft 0kts
08-Mar-19 16:58 45.942976 -112.494657 123 5539ft 0kts
08-Mar-19 16:59 45.945903 -112.494170 345 5536ft 75kts
08-Mar-19 17:00 45.982328 -112.503188 348 7249ft 179kts
08-Mar-19 17:01 46.005303 -112.549841 283 10719ft 165kts
08-Mar-19 17:02 46.014077 -112.615781 282 13536ft 173kts
08-Mar-19 17:03 46.022906 -112.688300 269 16047ft 190kts
08-Mar-19 17:04 45.985194 -112.735292 177 18464ft 217kts
08-Mar-19 17:05 45.924793 -112.719950 173 20659ft 225kts
08-Mar-19 17:06 45.862530 -112.703699 174 22647ft 233kts
08-Mar-19 17:07 45.797062 -112.686751 175 24661ft 231kts
08-Mar-19 17:08 45.732792 -112.670301 175 26263ft 239kts
08-Mar-19 17:09 45.667029 -112.653435 175 27819ft 242kts
08-Mar-19 17:10 45.600243 -112.636355 175 29222ft 245kts
08-Mar-19 17:11 45.532961 -112.619187 175 30508ft 247kts
08-Mar-19 17:12 45.460171 -112.600824 175 30740ft 290kts
08-Mar-19 17:13 45.374995 -112.579275 174 30738ft 331kts
08-Mar-19 17:14 45.280495 -112.555273 173 30736ft 355kts
08-Mar-19 17:15 45.181858 -112.527937 171 30736ft 368kts
08-Mar-19 17:16 45.080504 -112.497285 171 30735ft 374kts
08-Mar-19 17:17 44.977748 -112.466858 171 30735ft 379kts
08-Mar-19 17:18 44.874058 -112.436372 170 30737ft 383kts
08-Mar-19 17:19 44.770118 -112.405940 170 30737ft 385kts
08-Mar-19 17:20 44.665012 -112.375276 170 30737ft 386kts
08-Mar-19 17:21 44.561266 -112.345117 171 30734ft 386kts
08-Mar-19 17:22 44.456261 -112.314701 171 30730ft 386kts
08-Mar-19 17:23 44.351016 -112.284333 171 30705ft 386kts
08-Mar-19 17:24 44.245928 -112.254120 171 30696ft 386kts
08-Mar-19 17:25 44.140578 -112.223944 171 30696ft 386kts
08-Mar-19 17:26 44.035019 -112.194915 172 30696ft 385kts
08-Mar-19 17:27 43.929986 -112.167985 172 30698ft 385kts
08-Mar-19 17:28 43.824267 -112.140698 172 30703ft 385kts
08-Mar-19 17:29 43.719097 -112.113628 172 30711ft 385kts
08-Mar-19 17:30 43.613298 -112.086495 172 30716ft 386kts
08-Mar-19 17:31 43.507655 -112.059499 172 30716ft 386kts
08-Mar-19 17:32 43.404637 -112.035848 180 29103ft 371kts
08-Mar-19 17:33 43.303516 -112.037603 183 26967ft 358kts
08-Mar-19 17:34 43.205322 -112.039081 183 24791ft 348kts
08-Mar-19 17:35 43.109716 -112.039616 183 23718ft 347kts
08-Mar-19 17:36 43.009537 -112.040100 183 23719ft 367kts
08-Mar-19 17:37 42.906113 -112.040510 183 23734ft 378kts
08-Mar-19 17:38 42.799406 -112.040944 183 23740ft 386kts
08-Mar-19 17:39 42.691270 -112.041370 183 23743ft 389kts
08-Mar-19 17:40 42.590085 -112.041599 184 22435ft 350kts
08-Mar-19 17:41 42.494174 -112.042107 183 20654ft 340kts
08-Mar-19 17:42 42.399909 -112.042529 183 19022ft 334kts
08-Mar-19 17:43 42.308901 -112.042938 183 18755ft 340kts
08-Mar-19 17:44 42.212324 -112.043367 183 18754ft 352kts
08-Mar-19 17:45 42.113164 -112.043746 183 18754ft 359kts
08-Mar-19 17:46 42.012799 -112.044130 183 18754ft 362kts
08-Mar-19 17:47 41.910286 -112.044549 183 18756ft 376kts
08-Mar-19 17:48 41.850330 -112.044775 183 18756ft 383kts
08-Mar-19 17:49 41.749523 -112.045052 183 18765ft 344kts
08-Mar-19 17:50 41.655824 -112.045481 183 18767ft 334kts
08-Mar-19 17:51 41.562544 -112.046798 186 18768ft 335kts
08-Mar-19 17:52 41.469882 -112.061066 192 18747ft 335kts
08-Mar-19 17:53 41.381631 -112.080936 193 17727ft 316kts
08-Mar-19 17:54 41.295218 -112.099768 193 16599ft 314kts
08-Mar-19 17:55 41.212694 -112.117562 193 14793ft 288kts
08-Mar-19 17:56 41.133912 -112.134544 193 14678ft 282kts
08-Mar-19 17:57 41.057034 -112.143134 174 13108ft 276kts
08-Mar-19 17:58 40.982468 -112.127070 173 11612ft 266kts
08-Mar-19 17:59 40.914774 -112.112323 174 10958ft 218kts
08-Mar-19 18:00 40.854797 -112.103813 178 10968ft 247kts
08-Mar-19 18:01 40.782521 -112.095548 177 10964ft 260kts
08-Mar-19 18:02 40.711787 -112.087187 178 10197ft 237kts
08-Mar-19 18:03 40.647530 -112.079719 178 9184ft 231kts
08-Mar-19 18:04 40.582474 -112.072143 177 8976ft 243kts
08-Mar-19 18:05 40.513171 -112.064008 177 8984ft 236kts
08-Mar-19 18:06 40.451634 -112.056848 178 8992ft 224kts
08-Mar-19 18:07 40.401381 -112.011341 92 8974ft 261kts
08-Mar-19 18:08 40.426564 -111.951434 22 8952ft 162kts
08-Mar-19 18:09 40.468798 -111.925668 353 8965ft 173kts
08-Mar-19 18:11 40.517651 -111.933275 350 8964ft 177kts
08-Mar-19 18:12 40.565363 -111.938937 351 8352ft 161kts
08-Mar-19 18:13 40.606951 -111.943715 350 7553ft 139kts
08-Mar-19 18:14 40.640513 -111.947583 350 6509ft 112kts
08-Mar-19 18:15 40.675284 -111.951611 350 6076ft 126kts
08-Mar-19 18:16 40.707525 -111.955325 350 5552ft 115kts
08-Mar-19 18:17 40.742447 -111.959356 350 4914ft 112kts
08-Mar-19 18:18 40.769795 -111.961949 354 4383ft 101kts
08-Mar-19 18:19 40.782399 -111.960872 90 4232ft 0kts
08-Mar-19 18:20 40.782398 -111.960807 90 4232ft 3kts
08-Mar-19 18:21 40.778739 -111.960101 208 4232ft 12kts
08-Mar-19 18:22 40.777538 -111.959342 90 4232ft 7kts
08-Mar-19 18:23 40.777105 -111.958756 179 4232ft 0kts
08-Mar-19 18:24 40.777105 -111.958756 179 4232ft 0kts
08-Mar-19 18:25 40.777105 -111.958756 179 4232ft 0kts
08-Mar-19 18:26 40.777105 -111.958756 179 4232ft 0kts
08-Mar-19 18:27 40.777105 -111.958756 179 4232ft 0kts
08-Mar-19 18:28 40.777105 -111.958756 179 4232ft 0kts
08-Mar-19 18:29 40.777105 -111.958756 179 4232ft 0kts
08-Mar-19 18:29 40.777105 -111.958756 179 4232ft 0kts
08-Mar-19 18:31 40.777105 -111.958756 179 4232ft 0kts
08-Mar-19 18:32 40.777105 -111.958756 179 4232ft 0kts
08-Mar-19 18:33 40.777105 -111.958756 179 4232ft 0kts

Navigation Log

Ident Type
Flight plan parsing failed, navigation log unavailable